sensor_id;sensor_type;location;lat;lon;timestamp;temperature;humidity
7000;DHT22;3540;53.242;10.408;2023-07-20T00:00:48;13.20;99.90
7000;DHT22;3540;53.242;10.408;2023-07-20T00:03:19;13.20;99.90
7000;DHT22;3540;53.242;10.408;2023-07-20T00:05:48;13.10;99.90
7000;DHT22;3540;53.242;10.408;2023-07-20T00:08:14;13.10;99.90
7000;DHT22;3540;53.242;10.408;2023-07-20T00:10:41;13.10;99.90
7000;DHT22;3540;53.242;10.408;2023-07-20T00:13:06;13.00;99.90
7000;DHT22;3540;53.242;10.408;2023-07-20T00:15:32;13.10;99.90
7000;DHT22;3540;53.242;10.408;2023-07-20T00:17:58;13.00;99.90
7000;DHT22;3540;53.242;10.408;2023-07-20T00:20:24;13.00;99.90
7000;DHT22;3540;53.242;10.408;2023-07-20T00:22:50;13.10;99.90
7000;DHT22;3540;53.242;10.408;2023-07-20T00:25:17;13.00;99.90
7000;DHT22;3540;53.242;10.408;2023-07-20T00:27:42;13.00;99.90
7000;DHT22;3540;53.242;10.408;2023-07-20T00:30:08;13.00;99.90
7000;DHT22;3540;53.242;10.408;2023-07-20T00:32:34;13.00;99.90
7000;DHT22;3540;53.242;10.408;2023-07-20T00:35:00;13.00;99.90
7000;DHT22;3540;53.242;10.408;2023-07-20T00:37:25;13.00;99.90
7000;DHT22;3540;53.242;10.408;2023-07-20T00:39:51;13.00;99.90
7000;DHT22;3540;53.242;10.408;2023-07-20T00:42:17;13.00;99.90
7000;DHT22;3540;53.242;10.408;2023-07-20T00:44:43;12.90;99.90
7000;DHT22;3540;53.242;10.408;2023-07-20T00:47:08;12.90;99.90
7000;DHT22;3540;53.242;10.408;2023-07-20T00:49:34;12.80;99.90
7000;DHT22;3540;53.242;10.408;2023-07-20T00:52:00;12.80;99.90
7000;DHT22;3540;53.242;10.408;2023-07-20T00:54:27;12.80;99.90
7000;DHT22;3540;53.242;10.408;2023-07-20T00:56:53;12.70;99.90
7000;DHT22;3540;53.242;10.408;2023-07-20T00:59:20;12.70;99.90
7000;DHT22;3540;53.242;10.408;2023-07-20T01:01:46;12.70;99.90
7000;DHT22;3540;53.242;10.408;2023-07-20T01:04:12;12.70;99.90
7000;DHT22;3540;53.242;10.408;2023-07-20T01:14:20;12.80;99.90
7000;DHT22;3540;53.242;10.408;2023-07-20T01:16:45;12.80;99.90
7000;DHT22;3540;53.242;10.408;2023-07-20T01:19:13;12.90;99.90
7000;DHT22;3540;53.242;10.408;2023-07-20T01:21:53;12.90;99.90
7000;DHT22;3540;53.242;10.408;2023-07-20T01:27:25;13.00;99.90
7000;DHT22;3540;53.242;10.408;2023-07-20T01:30:32;13.00;99.90
7000;DHT22;3540;53.242;10.408;2023-07-20T01:33:00;13.00;99.90
7000;DHT22;3540;53.242;10.408;2023-07-20T01:35:29;13.00;99.90
7000;DHT22;3540;53.242;10.408;2023-07-20T01:37:55;13.00;99.90
7000;DHT22;3540;53.242;10.408;2023-07-20T01:40:22;13.10;99.90
7000;DHT22;3540;53.242;10.408;2023-07-20T01:42:48;13.10;99.90
7000;DHT22;3540;53.242;10.408;2023-07-20T01:45:14;13.10;99.90
7000;DHT22;3540;53.242;10.408;2023-07-20T01:47:40;13.10;99.90
7000;DHT22;3540;53.242;10.408;2023-07-20T01:50:06;13.10;99.90
7000;DHT22;3540;53.242;10.408;2023-07-20T01:52:32;13.10;99.90
7000;DHT22;3540;53.242;10.408;2023-07-20T01:54:58;13.10;99.90
7000;DHT22;3540;53.242;10.408;2023-07-20T01:57:23;13.10;99.90
7000;DHT22;3540;53.242;10.408;2023-07-20T01:59:49;13.10;99.90
7000;DHT22;3540;53.242;10.408;2023-07-20T02:02:15;13.10;99.90
7000;DHT22;3540;53.242;10.408;2023-07-20T02:04:40;13.00;99.90
7000;DHT22;3540;53.242;10.408;2023-07-20T02:07:06;13.10;99.90
7000;DHT22;3540;53.242;10.408;2023-07-20T02:09:31;13.00;99.90
7000;DHT22;3540;53.242;10.408;2023-07-20T02:11:57;13.10;99.90
7000;DHT22;3540;53.242;10.408;2023-07-20T02:14:23;13.10;99.90
7000;DHT22;3540;53.242;10.408;2023-07-20T02:16:49;13.10;99.90
7000;DHT22;3540;53.242;10.408;2023-07-20T02:19:20;13.10;99.90
7000;DHT22;3540;53.242;10.408;2023-07-20T02:21:46;13.10;99.90
7000;DHT22;3540;53.242;10.408;2023-07-20T02:24:12;13.20;99.90
7000;DHT22;3540;53.242;10.408;2023-07-20T02:26:38;13.20;99.90
7000;DHT22;3540;53.242;10.408;2023-07-20T02:29:03;13.20;99.90
7000;DHT22;3540;53.242;10.408;2023-07-20T02:31:30;13.20;99.90
7000;DHT22;3540;53.242;10.408;2023-07-20T02:33:56;13.20;99.90
7000;DHT22;3540;53.242;10.408;2023-07-20T02:36:21;13.20;99.90
7000;DHT22;3540;53.242;10.408;2023-07-20T02:38:47;13.20;99.90
7000;DHT22;3540;53.242;10.408;2023-07-20T02:41:13;13.20;99.90
7000;DHT22;3540;53.242;10.408;2023-07-20T02:43:39;13.20;99.90
7000;DHT22;3540;53.242;10.408;2023-07-20T02:46:05;13.20;99.90
7000;DHT22;3540;53.242;10.408;2023-07-20T02:48:30;13.20;99.90
7000;DHT22;3540;53.242;10.408;2023-07-20T02:50:56;13.20;99.90
7000;DHT22;3540;53.242;10.408;2023-07-20T02:53:22;13.20;99.90
7000;DHT22;3540;53.242;10.408;2023-07-20T02:55:47;13.20;99.90
7000;DHT22;3540;53.242;10.408;2023-07-20T02:58:13;13.20;99.90
7000;DHT22;3540;53.242;10.408;2023-07-20T03:00:39;13.20;99.90
7000;DHT22;3540;53.242;10.408;2023-07-20T03:03:04;13.30;99.90
7000;DHT22;3540;53.242;10.408;2023-07-20T03:05:35;13.20;99.90
7000;DHT22;3540;53.242;10.408;2023-07-20T03:08:00;13.30;99.90
7000;DHT22;3540;53.242;10.408;2023-07-20T03:10:28;13.30;99.90
7000;DHT22;3540;53.242;10.408;2023-07-20T03:12:53;13.30;99.90
7000;DHT22;3540;53.242;10.408;2023-07-20T03:15:19;13.30;99.90
7000;DHT22;3540;53.242;10.408;2023-07-20T03:17:45;13.30;99.90
7000;DHT22;3540;53.242;10.408;2023-07-20T03:20:11;13.40;99.90
7000;DHT22;3540;53.242;10.408;2023-07-20T03:22:38;13.30;99.90
7000;DHT22;3540;53.242;10.408;2023-07-20T03:25:04;13.30;99.90
7000;DHT22;3540;53.242;10.408;2023-07-20T03:27:30;13.30;99.90
7000;DHT22;3540;53.242;10.408;2023-07-20T03:29:55;13.30;99.90
7000;DHT22;3540;53.242;10.408;2023-07-20T03:32:21;13.30;99.90
7000;DHT22;3540;53.242;10.408;2023-07-20T03:34:47;13.30;99.90
7000;DHT22;3540;53.242;10.408;2023-07-20T03:37:13;13.30;99.90
7000;DHT22;3540;53.242;10.408;2023-07-20T03:39:38;13.30;99.90
7000;DHT22;3540;53.242;10.408;2023-07-20T03:42:04;13.30;99.90
7000;DHT22;3540;53.242;10.408;2023-07-20T03:44:30;13.30;99.90
7000;DHT22;3540;53.242;10.408;2023-07-20T03:46:56;13.30;99.90
7000;DHT22;3540;53.242;10.408;2023-07-20T03:49:21;13.40;99.90
7000;DHT22;3540;53.242;10.408;2023-07-20T03:51:47;13.40;99.90
7000;DHT22;3540;53.242;10.408;2023-07-20T03:54:13;13.40;99.90
7000;DHT22;3540;53.242;10.408;2023-07-20T03:56:38;13.40;99.90
7000;DHT22;3540;53.242;10.408;2023-07-20T03:59:05;13.40;99.90
7000;DHT22;3540;53.242;10.408;2023-07-20T04:01:30;13.40;99.90
7000;DHT22;3540;53.242;10.408;2023-07-20T04:04:05;13.40;99.90
7000;DHT22;3540;53.242;10.408;2023-07-20T04:06:31;13.40;99.90
7000;DHT22;3540;53.242;10.408;2023-07-20T04:08:57;13.40;99.90
7000;DHT22;3540;53.242;10.408;2023-07-20T04:11:23;13.40;99.90
7000;DHT22;3540;53.242;10.408;2023-07-20T04:13:48;13.50;99.90
7000;DHT22;3540;53.242;10.408;2023-07-20T04:16:14;13.40;99.90
7000;DHT22;3540;53.242;10.408;2023-07-20T04:18:39;13.40;99.90
7000;DHT22;3540;53.242;10.408;2023-07-20T04:21:07;13.40;99.90
7000;DHT22;3540;53.242;10.408;2023-07-20T04:23:32;13.40;99.90
7000;DHT22;3540;53.242;10.408;2023-07-20T04:25:58;13.40;99.90
7000;DHT22;3540;53.242;10.408;2023-07-20T04:28:24;13.40;99.90
7000;DHT22;3540;53.242;10.408;2023-07-20T04:30:50;13.50;99.90
7000;DHT22;3540;53.242;10.408;2023-07-20T04:33:16;13.60;99.90
7000;DHT22;3540;53.242;10.408;2023-07-20T04:35:51;13.60;99.90
7000;DHT22;3540;53.242;10.408;2023-07-20T04:38:17;13.60;99.90
7000;DHT22;3540;53.242;10.408;2023-07-20T04:40:48;13.70;99.90
7000;DHT22;3540;53.242;10.408;2023-07-20T04:43:15;13.70;99.90
7000;DHT22;3540;53.242;10.408;2023-07-20T04:45:41;13.80;99.90
7000;DHT22;3540;53.242;10.408;2023-07-20T04:48:10;13.80;99.90
7000;DHT22;3540;53.242;10.408;2023-07-20T04:50:37;13.90;99.90
7000;DHT22;3540;53.242;10.408;2023-07-20T04:53:02;13.90;99.90
7000;DHT22;3540;53.242;10.408;2023-07-20T04:55:28;13.80;99.90
7000;DHT22;3540;53.242;10.408;2023-07-20T04:57:54;13.70;99.90
7000;DHT22;3540;53.242;10.408;2023-07-20T05:00:20;13.80;99.90
7000;DHT22;3540;53.242;10.408;2023-07-20T05:02:47;13.70;99.90
7000;DHT22;3540;53.242;10.408;2023-07-20T05:05:15;13.80;99.90
7000;DHT22;3540;53.242;10.408;2023-07-20T05:07:40;13.80;99.90
7000;DHT22;3540;53.242;10.408;2023-07-20T05:10:06;13.80;99.90
7000;DHT22;3540;53.242;10.408;2023-07-20T05:12:32;13.90;99.90
7000;DHT22;3540;53.242;10.408;2023-07-20T05:14:58;13.90;99.90
7000;DHT22;3540;53.242;10.408;2023-07-20T05:17:24;14.00;99.90
7000;DHT22;3540;53.242;10.408;2023-07-20T05:19:50;14.10;99.90
7000;DHT22;3540;53.242;10.408;2023-07-20T05:22:16;14.00;99.90
7000;DHT22;3540;53.242;10.408;2023-07-20T05:24:42;14.00;99.90
7000;DHT22;3540;53.242;10.408;2023-07-20T05:27:08;14.10;99.90
7000;DHT22;3540;53.242;10.408;2023-07-20T05:29:34;14.10;99.90
7000;DHT22;3540;53.242;10.408;2023-07-20T05:31:59;14.20;99.90
7000;DHT22;3540;53.242;10.408;2023-07-20T05:34:25;14.20;99.90
7000;DHT22;3540;53.242;10.408;2023-07-20T05:36:51;14.10;99.90
7000;DHT22;3540;53.242;10.408;2023-07-20T05:39:17;14.10;99.90
7000;DHT22;3540;53.242;10.408;2023-07-20T05:41:43;14.20;99.90
7000;DHT22;3540;53.242;10.408;2023-07-20T05:44:09;14.20;99.90
7000;DHT22;3540;53.242;10.408;2023-07-20T05:46:34;14.30;99.90
7000;DHT22;3540;53.242;10.408;2023-07-20T05:49:00;14.40;99.90
7000;DHT22;3540;53.242;10.408;2023-07-20T05:51:26;14.40;99.90
7000;DHT22;3540;53.242;10.408;2023-07-20T05:53:51;14.40;99.90
7000;DHT22;3540;53.242;10.408;2023-07-20T05:56:17;14.50;99.90
7000;DHT22;3540;53.242;10.408;2023-07-20T05:58:43;14.60;99.90
7000;DHT22;3540;53.242;10.408;2023-07-20T06:01:08;14.70;99.90
7000;DHT22;3540;53.242;10.408;2023-07-20T06:03:34;14.80;99.90
7000;DHT22;3540;53.242;10.408;2023-07-20T06:06:00;14.70;99.90
7000;DHT22;3540;53.242;10.408;2023-07-20T06:08:32;14.70;99.90
7000;DHT22;3540;53.242;10.408;2023-07-20T06:10:58;14.70;99.90
7000;DHT22;3540;53.242;10.408;2023-07-20T06:13:24;14.80;99.90
7000;DHT22;3540;53.242;10.408;2023-07-20T06:15:50;14.80;99.90
7000;DHT22;3540;53.242;10.408;2023-07-20T06:18:16;14.80;99.90
7000;DHT22;3540;53.242;10.408;2023-07-20T06:20:41;14.90;99.90
7000;DHT22;3540;53.242;10.408;2023-07-20T06:23:07;14.70;99.90
7000;DHT22;3540;53.242;10.408;2023-07-20T06:25:33;14.80;99.90
7000;DHT22;3540;53.242;10.408;2023-07-20T06:27:58;14.80;99.90
7000;DHT22;3540;53.242;10.408;2023-07-20T06:30:24;15.00;99.90
7000;DHT22;3540;53.242;10.408;2023-07-20T06:32:50;15.00;99.90
7000;DHT22;3540;53.242;10.408;2023-07-20T06:35:16;15.10;99.90
7000;DHT22;3540;53.242;10.408;2023-07-20T06:37:42;15.20;99.90
7000;DHT22;3540;53.242;10.408;2023-07-20T06:40:08;15.20;99.90
7000;DHT22;3540;53.242;10.408;2023-07-20T06:42:34;15.30;99.90
7000;DHT22;3540;53.242;10.408;2023-07-20T06:45:01;15.50;99.90
7000;DHT22;3540;53.242;10.408;2023-07-20T06:47:27;15.60;99.90
7000;DHT22;3540;53.242;10.408;2023-07-20T06:49:52;15.50;99.90
7000;DHT22;3540;53.242;10.408;2023-07-20T06:52:18;15.60;99.90
7000;DHT22;3540;53.242;10.408;2023-07-20T06:54:44;15.50;99.90
7000;DHT22;3540;53.242;10.408;2023-07-20T06:57:10;15.40;99.90
7000;DHT22;3540;53.242;10.408;2023-07-20T06:59:35;15.50;99.90
7000;DHT22;3540;53.242;10.408;2023-07-20T07:02:01;15.50;99.90
7000;DHT22;3540;53.242;10.408;2023-07-20T07:04:26;15.40;99.90
7000;DHT22;3540;53.242;10.408;2023-07-20T07:06:53;15.50;99.90
7000;DHT22;3540;53.242;10.408;2023-07-20T07:09:18;15.60;99.90
7000;DHT22;3540;53.242;10.408;2023-07-20T07:11:44;15.60;99.90
7000;DHT22;3540;53.242;10.408;2023-07-20T07:14:11;15.70;99.90
7000;DHT22;3540;53.242;10.408;2023-07-20T07:16:37;15.80;99.90
7000;DHT22;3540;53.242;10.408;2023-07-20T07:19:03;15.80;99.90
7000;DHT22;3540;53.242;10.408;2023-07-20T07:21:29;15.90;99.90
7000;DHT22;3540;53.242;10.408;2023-07-20T07:23:55;16.10;99.90
7000;DHT22;3540;53.242;10.408;2023-07-20T07:26:23;16.30;99.90
7000;DHT22;3540;53.242;10.408;2023-07-20T07:28:49;16.40;99.90
7000;DHT22;3540;53.242;10.408;2023-07-20T07:31:15;16.60;99.90
7000;DHT22;3540;53.242;10.408;2023-07-20T07:33:40;16.50;99.90
7000;DHT22;3540;53.242;10.408;2023-07-20T07:36:06;16.50;99.90
7000;DHT22;3540;53.242;10.408;2023-07-20T07:38:32;16.70;99.90
7000;DHT22;3540;53.242;10.408;2023-07-20T07:40:58;16.80;99.90
7000;DHT22;3540;53.242;10.408;2023-07-20T07:43:24;17.00;99.90
7000;DHT22;3540;53.242;10.408;2023-07-20T07:45:50;17.10;99.90
7000;DHT22;3540;53.242;10.408;2023-07-20T07:48:15;16.90;99.90
7000;DHT22;3540;53.242;10.408;2023-07-20T07:50:41;16.70;99.90
7000;DHT22;3540;53.242;10.408;2023-07-20T07:53:10;16.90;99.90
7000;DHT22;3540;53.242;10.408;2023-07-20T07:55:36;17.10;99.90
7000;DHT22;3540;53.242;10.408;2023-07-20T07:58:01;17.30;99.90
7000;DHT22;3540;53.242;10.408;2023-07-20T08:00:27;17.40;99.90
7000;DHT22;3540;53.242;10.408;2023-07-20T08:02:53;17.70;99.90
7000;DHT22;3540;53.242;10.408;2023-07-20T08:05:18;17.90;99.90
7000;DHT22;3540;53.242;10.408;2023-07-20T08:07:44;17.70;99.90
7000;DHT22;3540;53.242;10.408;2023-07-20T08:10:10;17.50;99.90
7000;DHT22;3540;53.242;10.408;2023-07-20T08:12:36;17.40;99.90
7000;DHT22;3540;53.242;10.408;2023-07-20T08:15:02;17.20;99.90
7000;DHT22;3540;53.242;10.408;2023-07-20T08:17:28;17.50;99.90
7000;DHT22;3540;53.242;10.408;2023-07-20T08:19:53;17.70;99.90
7000;DHT22;3540;53.242;10.408;2023-07-20T08:22:19;17.80;99.90
7000;DHT22;3540;53.242;10.408;2023-07-20T08:24:44;17.90;99.90
7000;DHT22;3540;53.242;10.408;2023-07-20T08:27:10;17.80;99.90
7000;DHT22;3540;53.242;10.408;2023-07-20T08:29:36;17.80;99.90
7000;DHT22;3540;53.242;10.408;2023-07-20T08:32:03;17.60;99.90
7000;DHT22;3540;53.242;10.408;2023-07-20T08:34:29;17.60;99.90
7000;DHT22;3540;53.242;10.408;2023-07-20T08:36:55;17.70;99.90
7000;DHT22;3540;53.242;10.408;2023-07-20T08:39:21;17.80;99.90
7000;DHT22;3540;53.242;10.408;2023-07-20T08:41:48;17.90;99.90
7000;DHT22;3540;53.242;10.408;2023-07-20T08:44:14;18.10;99.90
7000;DHT22;3540;53.242;10.408;2023-07-20T08:46:41;18.20;99.90
7000;DHT22;3540;53.242;10.408;2023-07-20T08:49:08;18.40;99.90
7000;DHT22;3540;53.242;10.408;2023-07-20T08:51:35;18.70;99.90
7000;DHT22;3540;53.242;10.408;2023-07-20T08:54:02;19.10;99.90
7000;DHT22;3540;53.242;10.408;2023-07-20T08:56:29;19.00;99.90
7000;DHT22;3540;53.242;10.408;2023-07-20T08:58:57;18.70;99.90
7000;DHT22;3540;53.242;10.408;2023-07-20T09:01:24;18.30;99.90
7000;DHT22;3540;53.242;10.408;2023-07-20T09:03:50;18.10;99.90
7000;DHT22;3540;53.242;10.408;2023-07-20T09:06:16;17.70;99.90
7000;DHT22;3540;53.242;10.408;2023-07-20T09:08:42;17.50;99.90
7000;DHT22;3540;53.242;10.408;2023-07-20T09:11:09;17.40;99.90
7000;DHT22;3540;53.242;10.408;2023-07-20T09:13:35;17.70;99.90
7000;DHT22;3540;53.242;10.408;2023-07-20T09:16:00;18.00;99.90
7000;DHT22;3540;53.242;10.408;2023-07-20T09:18:31;18.50;99.90
7000;DHT22;3540;53.242;10.408;2023-07-20T09:21:04;18.60;99.90
7000;DHT22;3540;53.242;10.408;2023-07-20T09:23:38;18.70;99.90
7000;DHT22;3540;53.242;10.408;2023-07-20T09:26:10;18.70;99.90
7000;DHT22;3540;53.242;10.408;2023-07-20T09:28:50;18.50;99.90
7000;DHT22;3540;53.242;10.408;2023-07-20T09:31:20;18.80;99.90
7000;DHT22;3540;53.242;10.408;2023-07-20T09:33:47;19.00;99.90
7000;DHT22;3540;53.242;10.408;2023-07-20T09:36:14;19.00;99.90
7000;DHT22;3540;53.242;10.408;2023-07-20T09:38:43;19.20;99.90
7000;DHT22;3540;53.242;10.408;2023-07-20T09:41:13;19.60;99.90
7000;DHT22;3540;53.242;10.408;2023-07-20T09:43:39;19.90;99.90
7000;DHT22;3540;53.242;10.408;2023-07-20T09:46:05;20.10;99.90
7000;DHT22;3540;53.242;10.408;2023-07-20T09:48:31;19.80;99.90
7000;DHT22;3540;53.242;10.408;2023-07-20T09:50:57;20.10;99.90
7000;DHT22;3540;53.242;10.408;2023-07-20T09:53:24;20.00;99.90
7000;DHT22;3540;53.242;10.408;2023-07-20T09:55:50;20.10;99.90
7000;DHT22;3540;53.242;10.408;2023-07-20T09:58:17;20.00;99.90
7000;DHT22;3540;53.242;10.408;2023-07-20T10:00:45;19.50;99.90
7000;DHT22;3540;53.242;10.408;2023-07-20T10:03:20;18.50;99.90
7000;DHT22;3540;53.242;10.408;2023-07-20T10:05:57;17.50;99.90
7000;DHT22;3540;53.242;10.408;2023-07-20T10:08:28;16.80;99.90
7000;DHT22;3540;53.242;10.408;2023-07-20T10:10:54;16.20;99.90
7000;DHT22;3540;53.242;10.408;2023-07-20T10:13:26;16.00;99.90
7000;DHT22;3540;53.242;10.408;2023-07-20T10:16:03;15.90;99.90
7000;DHT22;3540;53.242;10.408;2023-07-20T10:18:38;15.80;99.90
7000;DHT22;3540;53.242;10.408;2023-07-20T10:21:07;15.90;99.90
7000;DHT22;3540;53.242;10.408;2023-07-20T10:23:34;16.20;99.90
7000;DHT22;3540;53.242;10.408;2023-07-20T10:26:01;16.50;99.90
7000;DHT22;3540;53.242;10.408;2023-07-20T10:28:28;16.90;99.90
7000;DHT22;3540;53.242;10.408;2023-07-20T10:30:54;17.30;99.90
7000;DHT22;3540;53.242;10.408;2023-07-20T10:33:20;17.60;99.90
7000;DHT22;3540;53.242;10.408;2023-07-20T10:35:54;17.60;99.90
7000;DHT22;3540;53.242;10.408;2023-07-20T10:38:26;17.70;99.90
7000;DHT22;3540;53.242;10.408;2023-07-20T10:41:03;17.70;99.90
7000;DHT22;3540;53.242;10.408;2023-07-20T10:43:28;17.80;99.90
7000;DHT22;3540;53.242;10.408;2023-07-20T10:45:55;18.00;99.90
7000;DHT22;3540;53.242;10.408;2023-07-20T10:48:23;18.10;99.90
7000;DHT22;3540;53.242;10.408;2023-07-20T10:51:08;18.40;99.90
7000;DHT22;3540;53.242;10.408;2023-07-20T10:53:34;18.50;99.90
7000;DHT22;3540;53.242;10.408;2023-07-20T10:56:12;18.50;99.90
7000;DHT22;3540;53.242;10.408;2023-07-20T10:58:40;18.60;99.90
7000;DHT22;3540;53.242;10.408;2023-07-20T11:01:07;18.70;99.90
7000;DHT22;3540;53.242;10.408;2023-07-20T11:03:37;18.70;99.90
7000;DHT22;3540;53.242;10.408;2023-07-20T11:09:07;18.80;99.90
7000;DHT22;3540;53.242;10.408;2023-07-20T11:11:48;18.50;99.90
7000;DHT22;3540;53.242;10.408;2023-07-20T11:14:22;18.10;99.90
7000;DHT22;3540;53.242;10.408;2023-07-20T11:16:49;17.80;99.90
7000;DHT22;3540;53.242;10.408;2023-07-20T11:19:20;17.60;99.90
7000;DHT22;3540;53.242;10.408;2023-07-20T11:21:50;17.70;99.90
7000;DHT22;3540;53.242;10.408;2023-07-20T11:24:16;18.10;99.90
7000;DHT22;3540;53.242;10.408;2023-07-20T11:26:49;18.20;99.90
7000;DHT22;3540;53.242;10.408;2023-07-20T11:29:20;18.80;99.90
7000;DHT22;3540;53.242;10.408;2023-07-20T11:31:46;19.30;99.90
7000;DHT22;3540;53.242;10.408;2023-07-20T11:34:14;19.40;99.90
7000;DHT22;3540;53.242;10.408;2023-07-20T11:36:48;20.00;99.90
7000;DHT22;3540;53.242;10.408;2023-07-20T11:39:16;19.60;99.90
7000;DHT22;3540;53.242;10.408;2023-07-20T11:41:49;19.40;99.90
7000;DHT22;3540;53.242;10.408;2023-07-20T11:44:22;19.10;99.90
7000;DHT22;3540;53.242;10.408;2023-07-20T11:49:27;18.70;99.90
7000;DHT22;3540;53.242;10.408;2023-07-20T11:51:52;18.90;99.90
7000;DHT22;3540;53.242;10.408;2023-07-20T11:54:18;19.10;99.90
7000;DHT22;3540;53.242;10.408;2023-07-20T11:56:44;19.20;99.90
7000;DHT22;3540;53.242;10.408;2023-07-20T11:59:10;19.00;99.90
7000;DHT22;3540;53.242;10.408;2023-07-20T12:01:35;19.10;99.90
7000;DHT22;3540;53.242;10.408;2023-07-20T12:04:04;19.00;99.90
7000;DHT22;3540;53.242;10.408;2023-07-20T12:06:32;19.30;99.90
7000;DHT22;3540;53.242;10.408;2023-07-20T12:08:58;19.30;99.90
7000;DHT22;3540;53.242;10.408;2023-07-20T12:11:39;19.50;99.90
7000;DHT22;3540;53.242;10.408;2023-07-20T12:14:09;19.60;99.90
7000;DHT22;3540;53.242;10.408;2023-07-20T12:16:35;19.70;99.90
7000;DHT22;3540;53.242;10.408;2023-07-20T12:19:05;19.70;99.90
7000;DHT22;3540;53.242;10.408;2023-07-20T12:21:33;19.40;99.90
7000;DHT22;3540;53.242;10.408;2023-07-20T12:23:59;19.00;99.90
7000;DHT22;3540;53.242;10.408;2023-07-20T12:26:25;18.90;99.90
7000;DHT22;3540;53.242;10.408;2023-07-20T12:28:54;18.80;99.90
7000;DHT22;3540;53.242;10.408;2023-07-20T12:31:20;19.00;99.90
7000;DHT22;3540;53.242;10.408;2023-07-20T12:33:48;19.10;99.90
7000;DHT22;3540;53.242;10.408;2023-07-20T12:36:14;19.00;99.90
7000;DHT22;3540;53.242;10.408;2023-07-20T12:38:40;19.00;99.90
7000;DHT22;3540;53.242;10.408;2023-07-20T12:41:07;19.20;99.90
7000;DHT22;3540;53.242;10.408;2023-07-20T12:43:33;19.00;99.90
7000;DHT22;3540;53.242;10.408;2023-07-20T12:45:59;19.10;99.90
7000;DHT22;3540;53.242;10.408;2023-07-20T12:48:25;18.90;99.90
7000;DHT22;3540;53.242;10.408;2023-07-20T12:50:50;18.60;99.90
7000;DHT22;3540;53.242;10.408;2023-07-20T12:53:17;18.60;99.90
7000;DHT22;3540;53.242;10.408;2023-07-20T12:55:42;18.40;99.90
7000;DHT22;3540;53.242;10.408;2023-07-20T12:58:08;18.40;99.90
7000;DHT22;3540;53.242;10.408;2023-07-20T13:00:34;18.70;99.90
7000;DHT22;3540;53.242;10.408;2023-07-20T13:03:00;19.10;99.90
7000;DHT22;3540;53.242;10.408;2023-07-20T13:05:31;19.80;99.90
7000;DHT22;3540;53.242;10.408;2023-07-20T13:07:57;20.10;99.90
7000;DHT22;3540;53.242;10.408;2023-07-20T13:10:24;20.10;99.90
7000;DHT22;3540;53.242;10.408;2023-07-20T13:12:50;19.80;99.90
7000;DHT22;3540;53.242;10.408;2023-07-20T13:15:17;19.70;99.90
7000;DHT22;3540;53.242;10.408;2023-07-20T13:17:43;19.60;99.90
7000;DHT22;3540;53.242;10.408;2023-07-20T13:20:09;19.70;99.90
7000;DHT22;3540;53.242;10.408;2023-07-20T13:22:37;19.70;99.90
7000;DHT22;3540;53.242;10.408;2023-07-20T13:25:03;19.70;99.90
7000;DHT22;3540;53.242;10.408;2023-07-20T13:27:29;20.00;99.90
7000;DHT22;3540;53.242;10.408;2023-07-20T13:29:57;20.10;99.90
7000;DHT22;3540;53.242;10.408;2023-07-20T13:32:23;20.40;99.90
7000;DHT22;3540;53.242;10.408;2023-07-20T13:34:48;20.20;99.90
7000;DHT22;3540;53.242;10.408;2023-07-20T13:37:14;19.50;99.90
7000;DHT22;3540;53.242;10.408;2023-07-20T13:39:41;19.10;99.90
7000;DHT22;3540;53.242;10.408;2023-07-20T13:42:07;18.60;99.90
7000;DHT22;3540;53.242;10.408;2023-07-20T13:44:34;18.10;99.90
7000;DHT22;3540;53.242;10.408;2023-07-20T13:47:04;17.80;99.90
7000;DHT22;3540;53.242;10.408;2023-07-20T13:49:32;17.60;99.90
7000;DHT22;3540;53.242;10.408;2023-07-20T13:51:58;17.50;99.90
7000;DHT22;3540;53.242;10.408;2023-07-20T13:54:25;17.50;99.90
7000;DHT22;3540;53.242;10.408;2023-07-20T13:56:50;17.60;99.90
7000;DHT22;3540;53.242;10.408;2023-07-20T13:59:19;17.50;99.90
7000;DHT22;3540;53.242;10.408;2023-07-20T14:01:45;17.60;99.90
7000;DHT22;3540;53.242;10.408;2023-07-20T14:04:11;17.70;99.90
7000;DHT22;3540;53.242;10.408;2023-07-20T14:06:37;18.00;99.90
7000;DHT22;3540;53.242;10.408;2023-07-20T14:09:03;18.40;99.90
7000;DHT22;3540;53.242;10.408;2023-07-20T14:11:29;18.50;99.90
7000;DHT22;3540;53.242;10.408;2023-07-20T14:13:54;18.60;99.90
7000;DHT22;3540;53.242;10.408;2023-07-20T14:16:21;18.60;99.90
7000;DHT22;3540;53.242;10.408;2023-07-20T14:18:47;18.50;99.90
7000;DHT22;3540;53.242;10.408;2023-07-20T14:21:14;18.50;99.90
7000;DHT22;3540;53.242;10.408;2023-07-20T14:23:40;18.40;99.90
7000;DHT22;3540;53.242;10.408;2023-07-20T14:26:06;18.20;99.90
7000;DHT22;3540;53.242;10.408;2023-07-20T14:28:33;18.10;99.90
7000;DHT22;3540;53.242;10.408;2023-07-20T14:30:58;18.10;99.90
7000;DHT22;3540;53.242;10.408;2023-07-20T14:33:24;17.90;99.90
7000;DHT22;3540;53.242;10.408;2023-07-20T14:35:50;17.70;99.90
7000;DHT22;3540;53.242;10.408;2023-07-20T14:38:15;17.50;99.90
7000;DHT22;3540;53.242;10.408;2023-07-20T14:40:41;17.40;99.90
7000;DHT22;3540;53.242;10.408;2023-07-20T14:43:07;17.30;99.90
7000;DHT22;3540;53.242;10.408;2023-07-20T14:45:32;17.10;99.90
7000;DHT22;3540;53.242;10.408;2023-07-20T14:47:58;16.80;99.90
7000;DHT22;3540;53.242;10.408;2023-07-20T14:50:24;16.80;99.90
7000;DHT22;3540;53.242;10.408;2023-07-20T14:52:50;16.80;99.90
7000;DHT22;3540;53.242;10.408;2023-07-20T14:55:16;16.90;99.90
7000;DHT22;3540;53.242;10.408;2023-07-20T14:57:42;16.90;99.90
7000;DHT22;3540;53.242;10.408;2023-07-20T15:00:08;17.00;99.90
7000;DHT22;3540;53.242;10.408;2023-07-20T15:02:39;17.20;99.90
7000;DHT22;3540;53.242;10.408;2023-07-20T15:05:08;17.50;99.90
7000;DHT22;3540;53.242;10.408;2023-07-20T15:07:34;17.60;99.90
7000;DHT22;3540;53.242;10.408;2023-07-20T15:10:04;17.50;99.90
7000;DHT22;3540;53.242;10.408;2023-07-20T15:12:30;17.60;99.90
7000;DHT22;3540;53.242;10.408;2023-07-20T15:15:04;17.80;99.90
7000;DHT22;3540;53.242;10.408;2023-07-20T15:17:31;17.90;99.90
7000;DHT22;3540;53.242;10.408;2023-07-20T15:19:57;18.00;99.90
7000;DHT22;3540;53.242;10.408;2023-07-20T15:22:23;18.10;99.90
7000;DHT22;3540;53.242;10.408;2023-07-20T15:24:48;18.20;99.90
7000;DHT22;3540;53.242;10.408;2023-07-20T15:27:14;18.20;99.90
7000;DHT22;3540;53.242;10.408;2023-07-20T15:29:39;18.10;99.90
7000;DHT22;3540;53.242;10.408;2023-07-20T15:32:06;18.10;99.90
7000;DHT22;3540;53.242;10.408;2023-07-20T15:34:32;18.20;99.90
7000;DHT22;3540;53.242;10.408;2023-07-20T15:36:58;18.30;99.90
7000;DHT22;3540;53.242;10.408;2023-07-20T15:39:23;18.50;99.90
7000;DHT22;3540;53.242;10.408;2023-07-20T15:41:50;18.50;99.90
7000;DHT22;3540;53.242;10.408;2023-07-20T15:44:15;18.60;99.90
7000;DHT22;3540;53.242;10.408;2023-07-20T15:49:07;18.70;99.90
7000;DHT22;3540;53.242;10.408;2023-07-20T15:51:35;18.70;99.90
7000;DHT22;3540;53.242;10.408;2023-07-20T15:54:10;18.60;99.90
7000;DHT22;3540;53.242;10.408;2023-07-20T15:56:37;18.60;99.90
7000;DHT22;3540;53.242;10.408;2023-07-20T15:59:04;18.60;99.90
7000;DHT22;3540;53.242;10.408;2023-07-20T16:01:30;18.70;99.90